createdAt,value
2023-01-19T00:01:13.775Z,9.87
2023-01-19T00:06:17.208Z,12.60
2023-01-19T00:11:21.749Z,10.50
2023-01-19T00:16:25.172Z,8.43
2023-01-19T00:21:28.501Z,8.37
2023-01-19T00:26:32.927Z,11.53
2023-01-19T00:31:36.072Z,11.70
2023-01-19T00:36:39.433Z,9.70
2023-01-19T00:42:01.251Z,6.13
2023-01-19T00:47:05.744Z,10.83
2023-01-19T00:52:08.899Z,12.97
2023-01-19T00:57:13.652Z,9.40
2023-01-19T01:02:17.129Z,9.03
2023-01-19T01:07:20.645Z,10.43
2023-01-19T01:12:25.532Z,10.43
2023-01-19T01:17:29.019Z,8.37
2023-01-19T01:22:32.251Z,8.60
2023-01-19T01:27:36.896Z,10.07
2023-01-19T01:32:40.425Z,9.30
2023-01-19T01:37:44.187Z,11.60
2023-01-19T01:42:48.712Z,8.07
2023-01-19T01:47:54.098Z,8.53
2023-01-19T01:53:07.149Z,9.87
2023-01-19T01:58:13.816Z,10.67
2023-01-19T02:03:17.231Z,11.33
2023-01-19T02:08:45.632Z,9.67
2023-01-19T02:13:50.198Z,6.63
2023-01-19T02:18:53.346Z,7.83
2023-01-19T02:23:59.049Z,10.27
2023-01-19T02:29:04.090Z,15.87
2023-01-19T02:34:09.542Z,7.07
2023-01-19T02:39:20.074Z,8.93
2023-01-19T02:44:25.557Z,9.20
2023-01-19T02:49:30.929Z,7.13
2023-01-19T02:54:45.947Z,7.07
2023-01-19T03:00:02.537Z,8.97
2023-01-19T03:05:25.070Z,7.37
2023-01-19T03:10:36.116Z,6.57
2023-01-19T03:15:46.790Z,5.57
2023-01-19T03:20:53.597Z,7.40
2023-01-19T03:26:02.084Z,5.93
2023-01-19T03:31:12.431Z,8.87
2023-01-19T03:36:19.854Z,5.57
2023-01-19T03:41:27.219Z,7.20
2023-01-19T03:46:32.650Z,7.00
2023-01-19T03:51:39.227Z,5.87
2023-01-19T03:56:44.990Z,6.50
2023-01-19T04:01:48.457Z,4.33
2023-01-19T04:06:51.634Z,3.70
2023-01-19T04:11:56.762Z,4.03
2023-01-19T04:16:59.971Z,6.03
2023-01-19T04:22:03.212Z,5.57
2023-01-19T04:27:08.014Z,5.53
2023-01-19T04:32:11.256Z,6.30
2023-01-19T04:37:14.515Z,6.53
2023-01-19T04:42:19.266Z,7.03
2023-01-19T04:47:22.561Z,6.23
2023-01-19T04:52:25.726Z,7.33
2023-01-19T04:57:31.284Z,7.40
2023-01-19T05:02:34.710Z,6.63
2023-01-19T05:07:37.824Z,7.33
2023-01-19T05:12:45.787Z,4.90
2023-01-19T05:17:49.139Z,6.30
2023-01-19T05:22:58.248Z,4.17
2023-01-19T05:28:04.123Z,7.17
2023-01-19T05:33:07.322Z,7.13
2023-01-19T05:38:10.708Z,6.83
2023-01-19T05:43:15.735Z,5.93
2023-01-19T05:48:18.916Z,7.13
2023-01-19T05:53:21.967Z,7.13
2023-01-19T05:58:26.532Z,6.73
2023-01-19T06:03:32.769Z,11.87
2023-01-19T06:08:35.834Z,6.47
2023-01-19T06:13:45.446Z,7.33
2023-01-19T06:18:48.717Z,7.53
2023-01-19T06:23:51.912Z,12.70
2023-01-19T06:28:56.627Z,9.07
2023-01-19T06:33:59.803Z,10.97
2023-01-19T06:39:06.120Z,10.67
2023-01-19T06:44:10.707Z,8.37
2023-01-19T06:49:19.699Z,8.50
2023-01-19T06:54:23.164Z,8.50
2023-01-19T06:59:28.173Z,11.13
2023-01-19T07:04:31.656Z,10.67
2023-01-19T07:09:34.839Z,8.63
2023-01-19T07:14:39.649Z,10.27
2023-01-19T07:19:44.537Z,11.83
2023-01-19T07:24:47.588Z,10.50
2023-01-19T07:29:53.884Z,12.80
2023-01-19T07:35:00.111Z,9.33
2023-01-19T07:40:03.347Z,9.80
2023-01-19T07:45:10.208Z,10.70
2023-01-19T07:50:14.564Z,9.53
2023-01-19T07:55:18.199Z,8.33
2023-01-19T08:00:25.321Z,10.13
2023-01-19T08:05:34.243Z,10.97
2023-01-19T08:10:37.917Z,10.63
2023-01-19T08:15:42.999Z,11.40
2023-01-19T08:20:46.327Z,11.00
2023-01-19T08:25:49.394Z,12.17
2023-01-19T08:30:55.535Z,9.27
2023-01-19T08:35:58.847Z,9.57
2023-01-19T08:41:05.600Z,9.13
2023-01-19T08:46:10.708Z,12.87
2023-01-19T08:51:15.382Z,8.70
2023-01-19T08:56:20.714Z,9.93
2023-01-19T09:01:25.575Z,11.90
2023-01-19T09:06:28.851Z,10.67
2023-01-19T09:11:32.065Z,10.33
2023-01-19T09:16:36.850Z,9.07
2023-01-19T09:21:40.065Z,7.83
2023-01-19T09:26:43.185Z,8.10
2023-01-19T09:31:47.974Z,7.90
2023-01-19T09:36:51.062Z,10.00
2023-01-19T09:42:04.003Z,9.40
2023-01-19T09:47:15.499Z,12.20
2023-01-19T09:52:23.402Z,11.20
2023-01-19T09:57:28.133Z,9.40
2023-01-19T10:02:38.140Z,9.10
2023-01-19T10:07:54.774Z,7.57
2023-01-19T10:13:21.871Z,8.10
2023-01-19T10:18:34.603Z,9.10
2023-01-19T10:23:42.474Z,9.03
2023-01-19T10:28:49.274Z,7.07
2023-01-19T10:33:56.797Z,10.67
2023-01-19T10:39:19.771Z,10.40
2023-01-19T10:44:27.975Z,9.27
2023-01-19T10:49:39.371Z,8.90
2023-01-19T10:54:48.237Z,8.50
2023-01-19T10:59:51.984Z,10.37
2023-01-19T11:04:59.172Z,7.33
2023-01-19T11:10:24.225Z,7.70
2023-01-19T11:15:32.860Z,9.07
2023-01-19T11:20:49.417Z,9.87
2023-01-19T11:25:56.182Z,8.80
2023-01-19T11:31:01.293Z,7.90
2023-01-19T11:36:16.259Z,9.07
2023-01-19T11:41:28.123Z,7.80
2023-01-19T11:46:35.409Z,8.27
2023-01-19T11:51:50.767Z,8.70
2023-01-19T11:56:56.978Z,7.83
2023-01-19T12:02:05.619Z,8.20
2023-01-19T12:07:14.027Z,7.50
2023-01-19T12:12:28.283Z,7.50
2023-01-19T12:17:35.965Z,7.20
2023-01-19T12:22:50.810Z,6.73
2023-01-19T12:27:55.544Z,6.43
2023-01-19T12:33:23.673Z,6.93
2023-01-19T12:38:45.853Z,7.00
2023-01-19T12:43:51.182Z,6.80
2023-01-19T12:48:54.987Z,6.23
2023-01-19T12:54:01.267Z,5.77
2023-01-19T12:59:06.170Z,6.23
2023-01-19T13:04:31.796Z,7.13
2023-01-19T13:09:38.244Z,7.43
2023-01-19T13:14:43.302Z,9.07
2023-01-19T13:19:51.345Z,7.90
2023-01-19T13:25:25.502Z,7.17
2023-01-19T13:30:31.834Z,9.13
2023-01-19T13:35:35.793Z,7.43
2023-01-19T13:40:40.782Z,7.53
2023-01-19T13:45:51.110Z,7.57
2023-01-19T13:51:04.262Z,6.17
2023-01-19T13:56:21.854Z,8.37
2023-01-19T14:01:28.739Z,6.13
2023-01-19T14:06:37.305Z,7.90
2023-01-19T14:11:41.880Z,5.33
2023-01-19T14:16:47.230Z,7.07
2023-01-19T14:22:00.709Z,6.70
2023-01-19T14:27:22.807Z,6.40
2023-01-19T14:32:27.976Z,5.73
2023-01-19T14:37:34.763Z,5.07
2023-01-19T14:42:46.154Z,5.93
2023-01-19T14:47:57.856Z,6.53
2023-01-19T14:53:04.351Z,8.03
2023-01-19T14:58:15.822Z,6.67
2023-01-19T15:03:24.979Z,6.30
2023-01-19T15:08:33.518Z,6.10
2023-01-19T15:13:39.716Z,6.43
2023-01-19T15:18:42.870Z,5.90
2023-01-19T15:23:46.257Z,4.33
2023-01-19T15:28:51.425Z,6.30
2023-01-19T15:33:54.712Z,5.43
2023-01-19T15:38:58.158Z,7.93
2023-01-19T15:44:02.575Z,6.53
2023-01-19T15:49:20.984Z,6.23
2023-01-19T15:54:24.074Z,5.73
2023-01-19T15:59:28.679Z,5.77
2023-01-19T16:04:31.849Z,5.43
2023-01-19T16:09:35.058Z,8.47
2023-01-19T16:14:40.176Z,6.37
2023-01-19T16:19:43.234Z,7.40
2023-01-19T16:24:46.393Z,5.40
2023-01-19T16:29:51.248Z,7.43
2023-01-19T16:34:57.440Z,5.93
2023-01-19T16:40:00.912Z,6.17
2023-01-19T16:45:06.098Z,8.37
2023-01-19T16:50:12.650Z,8.17
2023-01-19T16:55:16.238Z,6.77
2023-01-19T17:00:24.395Z,7.23
2023-01-19T17:05:29.336Z,8.23
2023-01-19T17:10:32.675Z,8.27
2023-01-19T17:15:37.983Z,6.10
2023-01-19T17:20:41.026Z,6.70
2023-01-19T17:25:44.042Z,7.83
2023-01-19T17:30:51.592Z,8.40
2023-01-19T17:35:56.164Z,7.57
2023-01-19T17:41:03.011Z,7.23
2023-01-19T17:46:07.895Z,6.20
2023-01-19T17:51:13.548Z,8.10
2023-01-19T17:56:18.647Z,6.97
2023-01-19T18:01:28.759Z,6.40
2023-01-19T18:06:36.756Z,7.23
2023-01-19T18:11:39.910Z,6.53
2023-01-19T18:16:44.347Z,5.57
2023-01-19T18:21:48.903Z,7.00
2023-01-19T18:26:55.522Z,5.53
2023-01-19T18:32:00.545Z,6.57
2023-01-19T18:37:03.717Z,6.97
2023-01-19T18:42:16.291Z,8.23
2023-01-19T18:47:20.798Z,5.90
2023-01-19T18:52:27.781Z,7.27
2023-01-19T18:57:31.090Z,5.77
2023-01-19T19:02:35.871Z,7.73
2023-01-19T19:07:45.558Z,6.87
2023-01-19T19:12:51.105Z,7.13
2023-01-19T19:17:56.281Z,7.10
2023-01-19T19:22:59.659Z,9.13
2023-01-19T19:28:02.982Z,6.97
2023-01-19T19:33:07.957Z,7.40
2023-01-19T19:38:11.238Z,7.27
2023-01-19T19:43:14.467Z,8.13
2023-01-19T19:48:19.200Z,9.50
2023-01-19T19:53:23.009Z,9.37
2023-01-19T19:58:27.463Z,8.43
2023-01-19T20:03:32.871Z,10.20
2023-01-19T20:08:37.562Z,9.73
2023-01-19T20:13:42.956Z,10.67
2023-01-19T20:18:51.251Z,9.60
2023-01-19T20:23:55.184Z,8.50
2023-01-19T20:29:00.887Z,12.93
2023-01-19T20:34:08.875Z,8.20
2023-01-19T20:39:12.817Z,9.93
2023-01-19T20:44:18.923Z,10.73
2023-01-19T20:49:24.075Z,9.00
2023-01-19T20:54:30.231Z,8.73
2023-01-19T20:59:34.342Z,8.83
2023-01-19T21:04:39.170Z,8.00
2023-01-19T21:09:43.309Z,9.37
2023-01-19T21:14:46.472Z,8.43
2023-01-19T21:19:51.175Z,8.50
2023-01-19T21:24:54.523Z,10.40
2023-01-19T21:29:58.727Z,10.03
2023-01-19T21:35:03.680Z,8.23
2023-01-19T21:40:08.449Z,12.13
2023-01-19T21:45:12.192Z,8.60
2023-01-19T21:50:19.553Z,8.93
2023-01-19T21:55:22.750Z,9.70
2023-01-19T22:00:26.477Z,10.77
2023-01-19T22:05:31.226Z,9.50
2023-01-19T22:10:37.299Z,8.17
2023-01-19T22:15:40.580Z,8.63
2023-01-19T22:20:45.398Z,9.50
2023-01-19T22:25:48.673Z,10.37
2023-01-19T22:30:52.035Z,8.40
2023-01-19T22:35:56.843Z,9.57
2023-01-19T22:41:00.141Z,8.30
2023-01-19T22:46:04.258Z,8.37
2023-01-19T22:51:09.345Z,9.37
2023-01-19T22:56:14.835Z,11.70
2023-01-19T23:01:24.444Z,9.37
2023-01-19T23:06:32.425Z,9.10
2023-01-19T23:11:37.679Z,10.93
2023-01-19T23:16:41.264Z,11.07
2023-01-19T23:21:46.934Z,13.00
2023-01-19T23:26:50.865Z,11.53
2023-01-19T23:31:56.544Z,12.33
2023-01-19T23:37:03.974Z,13.10
2023-01-19T23:42:08.261Z,11.43
2023-01-19T23:47:11.568Z,12.17
2023-01-19T23:52:16.247Z,10.77
2023-01-19T23:57:19.442Z,10.93
